Terminal Aerodrome Forecast
Issued by NWS

Home | Current Version | Previous Version | Text Only | Print | Product List | Glossary Off
Versions: 1 2 3 4 5 6 7 8 9 10 11 12 13

103
FTUS42 KMHX 161740
TAFOAJ
TAF
KOAJ 161740Z 1618/1718 29013KT P6SM SKC
     FM162300 30007KT P6SM SKC
     FM170100 VRB03KT P6SM BKN250
     FM171700 19006KT P6SM FEW250
      AMD LTD TO CLD VIS AND WIND=

USA.gov is the U.S. government's official web portal to all federal, state and local government web resources and services.